EmailTwitter


Observations de surface / Québec / CYND

Régions: Québec | Canada | États-Unis | Europe | France | UK | Ailleurs
Station
Affichage
Infos & localisation pour CYND | Aide pour décoder les METARs

Observations prises le 2018-04-23 à 01H00 UTC à OTTAWA GATINEAU, QB (CYND)

Etat du ciel: quelques nuages.

Température: 4.0 Celsius

Point de rosée: -7.0 Celsius

Humidité relative: 45%

Vents: Calme à 0 km/h ou 0 noeuds.

Pression au niveau moyen de la mer: 102.92 kilopascals.

Calage altimétrique: 102.88 kilopascals ou 30.38 pouces de mercure.

Visibilité horizontale: 15.00 milles terrestres ou 24.00 kilomètres.

Observation METAR:

CYND 230100Z 00000KT 15SM FEW260 04/M07 A3038 RMK CI1 CI TR LAST STFD OBS/NEXT

231100 UTC SLP292=